Station: Gunn Point  

  Atmospheric Gas Attenuation - ITU Rec 676-11   ----------------- dB/100km -----------------
Date Time Temp RH % AH g/m3 Dew Point Wind Direction Speed kph Gust kph Barometer mB Rainfall Since 9am 24GHz 47GHz 76GHz 122GHz 134GHz 241GHz
08/05 12:00 29.7 47 14.03 17.2 13 22 1011.8 0 30.1 29.5 51.9 137.1 143.7 499.0
08/05 11:50 29.2 48 13.94 17.3 11 13 1012 0 29.9 29.6 51.9 137.0 143.5 498.2
08/05 11:40 29.2 47 13.65 17 19 22 1012.1 0 29.3 29.1 50.8 134.1 139.9 485.5
08/05 11:30 28.8 48 13.64 16.7 15 22 1012.2 0 29.4 29.2 51.0 134.6 140.5 487.5
08/05 11:20 28.3 47 12.99 15.9 19 22 1012.4 0 28.0 28.4 48.9 128.9 133.2 462.0
08/05 11:10 28.4 47 13.07 16.3 15 19 1012.5 0 28.2 28.5 49.1 129.5 134.0 465.0
08/05 11:00 28.4 49 13.62 16.7 13 26 1012.6 0 29.3 29.3 51.2 135.2 141.0 489.2
08/05 10:50 28 48 13.05 16.2 15 17 1012.7 0 28.2 28.6 49.3 130.0 134.5 466.5
08/05 10:40 27.7 49 13.11 16.3 11 17 1012.8 0 28.3 28.8 49.7 131.1 135.8 471.0
08/05 10:30 27.6 49 13.04 16.2 17 24 1012.9 0 28.2 28.7 49.5 130.6 135.1 468.5
08/05 10:20 27.4 50 13.16 16.3 15 19 1012.9 0 28.4 29.0 50.1 132.1 136.9 475.0
08/05 10:10 26.7 51 12.91 15.7 19 24 1012.9 0 28.0 28.8 49.6 130.7 135.0 468.0
08/05 10:00 26.8 53 13.49 16.4 11 20 1012.9 0 29.2 29.7 51.8 136.6 142.3 493.5
08/05 09:50 25.9 52 12.59 15.5 13 15 1012.9 0 27.4 28.5 48.8 128.7 132.3 458.5
08/05 09:40 25.6 53 12.62 15.3 19 24 1013 0 27.4 28.7 49.1 129.5 133.2 461.6
08/05 09:30 25.5 54 12.78 15.5 15 26 1013 0 27.8 29.0 49.8 131.3 135.4 469.4
08/05 09:20 25 53 12.2 15 13 17 1013 0 26.6 28.2 47.8 126.1 128.8 446.2
08/05 09:10 24.6 54 12.15 14.9 19 24 1013 0 26.5 28.3 47.9 126.2 128.8 446.3
08/05 09:00 24.4 56 12.46 15.1 13 22 1012.9 0 27.2 28.8 49.2 129.8 133.1 461.3
08/05 08:50 23.8 56 12.05 14.7 11 15 1012.8 0 26.4 28.4 48.0 126.4 128.8 446.2
08/05 08:40 23.3 59 12.34 14.8 17 22 1012.8 0 27.0 29.0 49.4 130.3 133.5 462.3
08/05 08:30 23.1 58 11.99 14.4 15 24 1012.7 0 26.3 28.5 48.2 126.9 129.2 447.4
08/05 08:20 22.7 60 12.12 14.5 17 20 1012.7 0 26.6 28.8 48.9 128.9 131.6 455.7
08/05 08:10 22.3 61 12.04 14.4 15 20 1012.7 0 26.4 28.8 48.8 128.7 131.2 454.3
08/05 08:00 21.8 63 12.09 14.4 11 17 1012.7 0 26.6 29.1 49.4 130.1 132.7 459.5
08/05 07:50 21.4 64 12 14.3 13 17 1012.5 0 26.4 29.1 49.2 129.7 132.2 457.6
08/05 07:40 21 64 11.72 14.1 15 19 1012.5 0 25.8 28.7 48.3 127.4 129.1 446.9
08/05 07:30 20.5 66 11.74 13.9 11 19 1012.4 0 25.9 28.9 48.7 128.4 130.2 450.7
08/05 07:20 20.2 66 11.54 13.8 11 15 1012.3 0 25.5 28.7 48.1 126.7 128.0 443.0
08/05 07:10 20.1 66 11.47 13.7 13 15 1012.1 0 25.4 28.6 47.9 126.1 127.3 440.2
08/05 07:00 20.3 67 11.78 14 11 20 1012.1 0 26.0 29.0 49.0 129.1 131.1 453.6
08/05 06:50 20.3 66 11.61 13.7 15 19 1012 0 25.6 28.8 48.3 127.2 128.8 445.6
08/05 06:40 20.4 65 11.5 13.6 11 15 1012 0 25.4 28.5 47.8 125.9 127.1 439.9
08/05 06:30 20.6 65 11.63 13.8 11 20 1011.9 0 25.7 28.7 48.2 127.0 128.5 444.8
08/05 06:20 20.6 65 11.63 13.8 15 17 1011.8 0 25.7 28.7 48.2 126.9 128.5 444.7
08/05 06:10 20.5 66 11.74 13.9 9 11 1011.8 0 25.9 28.9 48.7 128.3 130.2 450.5
08/05 06:00 20.2 68 11.89 14.1 9 17 1011.8 0 26.2 29.2 49.5 130.4 132.7 459.2
08/05 05:50 20 69 11.92 14.1 7 11 1011.7 0 26.3 29.4 49.7 131.1 133.4 461.8
08/05 05:40 19.9 69 11.85 14 7 9 1011.6 0 26.2 29.3 49.5 130.5 132.6 459.0
08/05 05:30 20 69 11.92 14.1 7 13 1011.6 0 26.3 29.3 49.7 131.1 133.4 461.8
08/05 05:20 20.1 68 11.82 14 9 11 1011.5 0 26.1 29.1 49.3 129.8 131.9 456.4
08/05 05:10 20.2 68 11.89 14.1 7 11 1011.5 0 26.2 29.2 49.5 130.4 132.7 459.1
08/05 05:00 20.4 68 12.03 14.3 7 15 1011.6 0 26.5 29.4 49.9 131.6 134.2 464.6
08/05 04:50 20.4 66 11.67 14 9 11 1011.5 0 25.8 28.8 48.5 127.7 129.4 447.6
08/05 04:40 20.5 66 11.74 14.1 7 9 1011.4 0 25.9 28.9 48.7 128.3 130.1 450.3
08/05 04:30 20.6 66 11.81 14 9 15 1011.3 0 26.1 29.0 48.9 128.8 130.9 453.0
08/05 04:20 20.8 66 11.95 14.2 11 15 1011.3 0 26.3 29.1 49.3 130.0 132.4 458.4
08/05 04:10 20.7 66 11.88 14.1 9 11 1011.3 0 26.2 29.0 49.1 129.4 131.7 455.7
08/05 04:00 20.7 66 11.88 14.1 7 11 1011.3 0 26.2 29.0 49.1 129.4 131.7 455.7
08/05 03:50 20.9 64 11.65 14 11 13 1011.4 0 25.7 28.6 48.1 126.6 128.3 443.8
08/05 03:40 21 64 11.72 14.1 11 17 1011.3 0 25.8 28.7 48.3 127.2 129.0 446.5
08/05 03:30 21 65 11.91 14.2 11 17 1011.4 0 26.2 29.0 49.1 129.3 131.6 455.4
08/05 03:20 20.9 66 12.02 14.3 11 15 1011.4 0 26.5 29.2 49.6 130.6 133.2 461.1
08/05 03:10 20.6 66 11.81 14.2 11 15 1011.5 0 26.1 29.0 48.9 128.9 130.9 453.0
08/05 03:00 20.2 69 12.06 14.3 9 13 1011.5 0 26.6 29.5 50.2 132.3 135.0 467.2
08/05 02:50 20 69 11.92 14.3 7 9 1011.6 0 26.3 29.3 49.7 131.1 133.4 461.8
08/05 02:40 19.8 72 12.3 14.6 7 9 1011.6 0 27.1 30.1 51.5 135.6 139.0 481.1
08/05 02:30 19.8 71 12.13 14.4 7 11 1011.7 0 26.8 29.8 50.7 133.8 136.6 473.0
08/05 02:20 19.8 73 12.47 14.8 7 9 1011.8 0 27.5 30.4 52.2 137.6 141.3 489.4
08/05 02:10 19.7 73 12.39 14.7 9 11 1011.9 0 27.3 30.3 51.9 136.9 140.4 486.2
08/05 02:00 19.5 74 12.42 14.7 7 9 1012 0 27.4 30.4 52.2 137.6 141.2 488.9
08/05 01:50 19.9 73 12.54 14.9 7 9 1012.2 0 27.6 30.5 52.4 138.2 142.2 492.3
08/05 01:40 19.9 73 12.54 14.9 7 9 1012.2 0 27.6 30.5 52.4 138.2 142.2 492.3
08/05 01:30 19.9 73 12.54 14.9 7 13 1012.2 0 27.6 30.5 52.4 138.2 142.2 492.3
08/05 01:20 20.1 72 12.51 14.9 7 9 1012.3 0 27.6 30.3 52.2 137.5 141.4 489.6
08/05 01:10 20.3 70 12.31 14.8 7 7 1012.4 0 27.1 29.9 51.2 135.0 138.3 478.8
08/05 01:00 20.4 71 12.56 15 7 11 1012.4 0 27.7 30.3 52.2 137.6 141.5 490.1
08/05 00:50 20.5 70 12.45 14.8 9 11 1012.5 0 27.4 30.1 51.7 136.2 139.9 484.3
08/05 00:40 20.8 70 12.67 15.1 7 11 1012.5 0 27.9 30.4 52.4 138.1 142.3 492.9
08/05 00:30 21 69 12.64 15.1 9 13 1012.6 0 27.8 30.3 52.1 137.5 141.6 490.3
08/05 00:20 20.7 70 12.6 15.2 9 11 1012.6 0 27.7 30.3 52.2 137.5 141.6 490.2
08/05 00:10 20.5 74 13.17 15.7 9 13 1012.6 0 28.9 31.3 54.7 144.3 149.8 519.1
08/05 00:00 20.4 75 13.27 15.8 9 11 1012.7 0 29.2 31.5 55.2 145.7 151.5 524.7
07/05 23:50 20.3 77 13.54 16.1 7 11 1012.7 0 29.7 32.0 56.5 149.0 155.5 538.7
07/05 23:40 20.1 79 13.73 16.3 9 9 1012.8 0 30.2 32.5 57.4 151.6 158.6 549.6
07/05 23:30 20.1 79 13.73 16.3 9 13 1012.8 0 30.2 32.5 57.4 151.6 158.6 549.6
07/05 23:20 19.9 82 14.09 16.7 9 11 1012.9 0 31.0 33.2 59.2 156.2 164.2 569.3
07/05 23:10 19.6 84 14.18 16.8 7 7 1012.9 0 31.2 33.5 59.8 157.9 166.2 576.1
07/05 23:00 19.1 88 14.42 17.1 7 11 1012.9 0 31.7 34.1 61.3 161.8 170.9 592.2
07/05 22:50 18.4 93 14.63 17.2 7 7 1012.9 0 32.2 34.8 62.8 165.9 175.6 608.7
07/05 22:40 18.2 94 14.61 17.2 7 9 1012.9 0 32.2 34.8 62.9 166.1 175.8 609.3
07/05 22:30 17.9 96 14.66 17.3 7 9 1012.9 0 32.3 35.0 63.4 167.3 177.2 614.3
07/05 22:20 17.6 96 14.4 16.9 6 7 1013 0 31.8 34.7 62.4 164.8 174.0 603.0
07/05 22:10 17.6 96 14.4 16.9 6 6 1013 0 31.8 34.7 62.4 164.8 174.0 603.0
07/05 22:00 17.6 95 14.25 16.8 6 7 1013 0 31.5 34.4 61.7 162.9 171.8 595.1
07/05 21:50 17.5 95 14.16 16.7 6 6 1012.9 0 31.3 34.3 61.4 162.0 170.6 591.1
07/05 21:40 17.6 94 14.1 16.7 4 6 1013 0 31.2 34.1 61.0 161.1 169.5 587.2
07/05 21:30 17.6 95 14.25 16.8 0 0 1013 0 31.5 34.4 61.7 162.9 171.8 595.1
07/05 21:20 17.8 94 14.27 16.9 0 0 1012.9 0 31.5 34.3 61.6 162.7 171.6 594.6
07/05 21:10 17.9 94 14.35 17 0 0 1012.9 0 31.7 34.4 61.9 163.5 172.6 598.0
07/05 21:00 17.9 94 14.35 16.9 0 0 1012.8 0 31.7 34.4 61.9 163.5 172.5 597.9
07/05 20:50 18 94 14.44 17 0 0 1012.7 0 31.9 34.6 62.3 164.4 173.7 601.8
07/05 20:40 18.1 94 14.52 17.1 0 0 1012.6 0 32.0 34.7 62.5 165.1 174.6 605.2
07/05 20:30 18.3 94 14.7 17.3 0 0 1012.5 0 32.4 34.9 63.2 166.9 176.9 613.0
07/05 20:20 18.3 93 14.54 17.1 0 0 1012.3 0 32.0 34.6 62.5 164.9 174.4 604.5
07/05 20:10 18.5 93 14.71 17.3 0 0 1012.3 0 32.4 34.8 63.1 166.5 176.5 611.8
07/05 20:00 18.8 92 14.82 17.5 0 0 1012.2 0 32.6 34.9 63.3 167.2 177.4 615.1
07/05 19:50 19 91 14.83 17.5 0 0 1012 0 32.6 34.8 63.2 166.9 177.1 614.0
07/05 19:40 19.3 91 15.09 17.8 0 0 1012 0 33.1 35.2 64.1 169.4 180.3 625.1
07/05 19:30 19.6 90 15.19 17.9 0 0 1012 0 33.3 35.3 64.3 170.0 181.1 627.9

Last Refresh: 08-May-2026 12:07:14

Bureau of Meteorology